createdAt,value
2022-11-29T00:04:38.588Z,101025.86
2022-11-29T00:09:41.595Z,101028.37
2022-11-29T00:14:44.657Z,101022.84
2022-11-29T00:19:47.710Z,101024.59
2022-11-29T00:24:51.157Z,101029.63
2022-11-29T00:29:54.030Z,101035.44
2022-11-29T00:34:59.523Z,101035.92
2022-11-29T00:40:03.881Z,101030.33
2022-11-29T00:45:07.624Z,101036.47
2022-11-29T00:50:11.169Z,101035.35
2022-11-29T00:55:14.751Z,101029.88
2022-11-29T01:00:18.115Z,101035.15
2022-11-29T01:05:21.629Z,101032.11
2022-11-29T01:10:25.045Z,101032.39
2022-11-29T01:15:28.665Z,101030.26
2022-11-29T01:20:31.777Z,101029.73
2022-11-29T01:25:34.786Z,101026.41
2022-11-29T01:30:37.901Z,101023.71
2022-11-29T01:35:40.895Z,101021.61
2022-11-29T01:40:44.818Z,101025.19
2022-11-29T01:45:49.793Z,101024.64
2022-11-29T01:50:55.755Z,101025.58
2022-11-29T01:56:03.766Z,101016.38
2022-11-29T02:01:06.805Z,101020.98
2022-11-29T02:06:10.095Z,101025.17
2022-11-29T02:11:44.947Z,101017.52
2022-11-29T02:16:57.172Z,101021.77
2022-11-29T02:22:18.613Z,101017.44
2022-11-29T02:27:27.653Z,101018.45
2022-11-29T02:33:03.023Z,101016.20
2022-11-29T02:38:40.128Z,101029.73
2022-11-29T02:43:58.289Z,101023.86
2022-11-29T02:49:28.227Z,101026.27
2022-11-29T02:54:42.934Z,101029.36
2022-11-29T02:59:53.951Z,101030.19
2022-11-29T03:05:22.918Z,101031.93
2022-11-29T03:10:44.049Z,101037.46
2022-11-29T03:15:59.888Z,101037.45
2022-11-29T03:21:18.630Z,101035.22
2022-11-29T03:26:29.317Z,101031.95
2022-11-29T03:31:36.623Z,101033.36
2022-11-29T03:37:02.774Z,101039.34
2022-11-29T03:42:33.223Z,101037.42
2022-11-29T03:47:38.686Z,101042.91
2022-11-29T03:52:53.674Z,101045.45
2022-11-29T03:58:12.861Z,101044.21
2022-11-29T04:03:37.679Z,101047.46
2022-11-29T04:09:08.640Z,101055.38
2022-11-29T04:14:43.448Z,101055.73
2022-11-29T04:19:52.543Z,101055.10
2022-11-29T04:25:14.392Z,101052.86
2022-11-29T04:30:25.060Z,101058.54
2022-11-29T04:35:33.816Z,101061.85
2022-11-29T04:41:11.540Z,101070.45
2022-11-29T04:46:23.702Z,101065.60
2022-11-29T04:51:37.006Z,101071.13
2022-11-29T04:56:50.353Z,101072.86
2022-11-29T05:02:29.524Z,101071.50
2022-11-29T05:07:38.385Z,101079.05
2022-11-29T05:13:18.632Z,101073.52
2022-11-29T05:18:40.275Z,101076.11
2022-11-29T05:24:03.150Z,101077.48
2022-11-29T05:29:30.015Z,101081.33
2022-11-29T05:34:48.518Z,101081.00
2022-11-29T05:40:31.223Z,101084.27
2022-11-29T05:45:57.995Z,101082.26
2022-11-29T05:51:24.338Z,101085.25
2022-11-29T05:56:48.143Z,101085.48
2022-11-29T06:02:16.172Z,101082.13
2022-11-29T06:07:28.677Z,101085.42
2022-11-29T06:12:36.009Z,101090.97
2022-11-29T06:18:22.999Z,101093.45
2022-11-29T06:23:48.738Z,101096.59
2022-11-29T06:29:13.251Z,101105.77
2022-11-29T06:34:26.238Z,101113.41
2022-11-29T06:39:32.980Z,101116.75
2022-11-29T06:44:36.785Z,101121.80
2022-11-29T06:50:03.573Z,101132.26
2022-11-29T06:55:33.539Z,101135.11
2022-11-29T07:00:51.936Z,101136.42
2022-11-29T07:05:56.202Z,101144.39
2022-11-29T07:11:00.556Z,101143.77
2022-11-29T07:16:25.895Z,101146.35
2022-11-29T07:21:50.597Z,101151.89
2022-11-29T07:27:16.440Z,101153.09
2022-11-29T07:32:51.380Z,101144.45
2022-11-29T07:38:04.624Z,101152.02
2022-11-29T07:43:16.719Z,101157.38
2022-11-29T07:48:19.767Z,101157.04
2022-11-29T07:53:24.199Z,101154.56
2022-11-29T07:58:27.140Z,101159.36
2022-11-29T08:03:30.118Z,101155.23
2022-11-29T08:08:33.125Z,101153.19
2022-11-29T08:13:36.425Z,101156.69
2022-11-29T08:18:39.345Z,101160.52
2022-11-29T08:23:42.462Z,101163.70
2022-11-29T08:28:45.681Z,101160.42
2022-11-29T08:33:50.107Z,101169.91
2022-11-29T08:39:00.106Z,101167.70
2022-11-29T08:44:06.865Z,101169.84
2022-11-29T08:49:09.770Z,101173.53
2022-11-29T08:54:12.777Z,101172.74
2022-11-29T08:59:15.681Z,101173.41
2022-11-29T09:04:18.586Z,101176.26
2022-11-29T09:09:22.205Z,101179.52
2022-11-29T09:14:26.342Z,101179.81
2022-11-29T09:19:29.345Z,101175.77
2022-11-29T09:24:33.609Z,101174.30
2022-11-29T09:29:36.585Z,101175.23
2022-11-29T09:34:40.309Z,101168.91
2022-11-29T09:39:46.286Z,101167.99
2022-11-29T09:44:52.161Z,101169.48
2022-11-29T09:50:16.056Z,101168.92
2022-11-29T09:55:48.761Z,101166.10
2022-11-29T10:00:58.762Z,101163.05
2022-11-29T10:06:50.176Z,101159.45
2022-11-29T10:12:30.762Z,101162.71
2022-11-29T10:17:38.685Z,101163.90
2022-11-29T10:22:53.614Z,101166.41
2022-11-29T10:27:56.779Z,101163.98
2022-11-29T10:33:00.906Z,101165.64
2022-11-29T10:38:29.725Z,101165.50
2022-11-29T10:43:27.912Z,101167.48
2022-11-29T10:48:33.567Z,101170.73
2022-11-29T10:53:37.803Z,101178.65
2022-11-29T10:59:23.012Z,101175.70
2022-11-29T11:04:37.355Z,101175.73
2022-11-29T11:09:59.590Z,101188.08
2022-11-29T11:15:24.255Z,101188.40
2022-11-29T11:20:33.198Z,101187.02
2022-11-29T11:25:40.711Z,101187.34
2022-11-29T11:30:51.369Z,101189.27
2022-11-29T11:36:11.945Z,101187.68
2022-11-29T11:41:20.701Z,101186.70
2022-11-29T11:46:44.075Z,101188.19
2022-11-29T11:51:47.349Z,101188.85
2022-11-29T11:56:50.462Z,101193.02
2022-11-29T12:01:54.083Z,101196.89
2022-11-29T12:07:01.500Z,101197.57
2022-11-29T12:12:23.627Z,101197.98
2022-11-29T12:17:44.272Z,101195.42
2022-11-29T12:23:06.427Z,101197.31
2022-11-29T12:28:20.038Z,101201.29
2022-11-29T12:33:42.540Z,101209.39
2022-11-29T12:38:55.584Z,101200.45
2022-11-29T12:44:37.914Z,101200.95
2022-11-29T12:50:11.435Z,101201.48
2022-11-29T12:55:32.258Z,101205.45
2022-11-29T13:00:45.409Z,101208.63
2022-11-29T13:06:07.873Z,101211.25
2022-11-29T13:11:32.481Z,101212.25
2022-11-29T13:16:49.748Z,101220.41
2022-11-29T13:22:11.020Z,101224.21
2022-11-29T13:27:23.686Z,101230.45
2022-11-29T13:32:42.270Z,101233.59
2022-11-29T13:37:59.190Z,101238.13
2022-11-29T13:43:30.481Z,101235.95
2022-11-29T13:48:48.830Z,101240.71
2022-11-29T13:53:53.164Z,101244.58
2022-11-29T13:58:58.959Z,101247.20
2022-11-29T14:04:06.911Z,101244.74
2022-11-29T14:09:31.673Z,101250.36
2022-11-29T14:14:52.295Z,101248.08
2022-11-29T14:20:24.998Z,101256.90
2022-11-29T14:25:50.528Z,101254.33
2022-11-29T14:31:02.089Z,101259.33
2022-11-29T14:36:27.063Z,101262.09
2022-11-29T14:41:49.014Z,101258.88
2022-11-29T14:47:07.557Z,101259.55
2022-11-29T14:52:13.768Z,101259.09
2022-11-29T14:57:45.138Z,101262.85
2022-11-29T15:03:00.538Z,101268.98
2022-11-29T15:08:09.867Z,101270.27
2022-11-29T15:13:19.091Z,101270.81
2022-11-29T15:18:40.269Z,101268.50
2022-11-29T15:23:44.625Z,101268.16
2022-11-29T15:28:47.785Z,101267.87
2022-11-29T15:33:51.691Z,101270.61
2022-11-29T15:38:59.361Z,101276.28
2022-11-29T15:44:05.953Z,101281.27
2022-11-29T15:49:38.667Z,101286.84
2022-11-29T15:54:44.946Z,101287.63
2022-11-29T15:59:57.671Z,101293.77
2022-11-29T16:05:08.666Z,101292.05
2022-11-29T16:10:26.440Z,101297.36
2022-11-29T16:15:37.412Z,101299.23
2022-11-29T16:20:40.854Z,101297.81
2022-11-29T16:26:33.604Z,101303.52
2022-11-29T16:31:38.492Z,101309.02
2022-11-29T16:36:41.623Z,101311.73
2022-11-29T16:42:01.464Z,101308.85
2022-11-29T16:47:24.949Z,101310.65
2022-11-29T16:52:30.819Z,101315.52
2022-11-29T16:57:38.745Z,101317.75
2022-11-29T17:02:41.777Z,101321.42
2022-11-29T17:07:45.535Z,101321.38
2022-11-29T17:12:48.703Z,101320.57
2022-11-29T17:17:51.890Z,101324.29
2022-11-29T17:22:54.900Z,101325.24
2022-11-29T17:27:58.331Z,101327.81
2022-11-29T17:33:01.437Z,101329.71
2022-11-29T17:38:04.435Z,101339.85
2022-11-29T17:43:07.653Z,101336.20
2022-11-29T17:48:10.858Z,101339.52
2022-11-29T17:53:14.062Z,101336.98
2022-11-29T17:58:17.177Z,101341.23
2022-11-29T18:03:20.493Z,101343.90
2022-11-29T18:08:23.593Z,101347.02
2022-11-29T18:13:27.842Z,101346.05
2022-11-29T18:18:31.258Z,101348.84
2022-11-29T18:23:37.735Z,101347.84
2022-11-29T18:28:42.054Z,101349.30
2022-11-29T18:33:47.032Z,101350.94
2022-11-29T18:38:56.695Z,101349.05
2022-11-29T18:44:05.281Z,101355.56
2022-11-29T18:49:10.179Z,101357.01
2022-11-29T18:54:15.332Z,101352.79
2022-11-29T18:59:18.553Z,101352.48
2022-11-29T19:04:21.855Z,101353.89
2022-11-29T19:09:24.962Z,101348.39
2022-11-29T19:14:28.071Z,101353.50
2022-11-29T19:19:32.204Z,101354.09
2022-11-29T19:24:35.313Z,101355.40
2022-11-29T19:29:39.747Z,101358.39
2022-11-29T19:34:44.303Z,101360.12
2022-11-29T19:39:47.693Z,101363.75
2022-11-29T19:50:14.002Z,101374.35
2022-11-29T19:55:17.319Z,101379.58
2022-11-29T20:00:20.735Z,101383.77
2022-11-29T20:05:23.942Z,101381.75
2022-11-29T20:10:27.739Z,101383.40
2022-11-29T20:15:31.161Z,101391.28
2022-11-29T20:20:34.737Z,101390.39
2022-11-29T20:25:38.121Z,101388.29
2022-11-29T20:30:41.130Z,101395.83
2022-11-29T20:35:44.313Z,101399.88
2022-11-29T20:41:02.663Z,101398.05
2022-11-29T20:46:07.121Z,101399.20
2022-11-29T20:51:11.070Z,101399.49
2022-11-29T20:56:14.996Z,101402.13
2022-11-29T21:01:18.162Z,101400.28
2022-11-29T21:06:21.217Z,101400.49
2022-11-29T21:11:25.535Z,101402.13
2022-11-29T21:16:31.173Z,101404.30
2022-11-29T21:21:52.338Z,101404.48
2022-11-29T21:26:55.444Z,101407.55
2022-11-29T21:32:00.892Z,101413.86
2022-11-29T21:37:05.572Z,101417.46
2022-11-29T21:42:08.593Z,101418.59
2022-11-29T21:47:11.890Z,101422.42
2022-11-29T21:52:20.677Z,101425.45
2022-11-29T21:57:25.274Z,101427.65
2022-11-29T22:02:28.512Z,101432.73
2022-11-29T22:07:31.737Z,101431.10
2022-11-29T22:12:35.310Z,101430.39
2022-11-29T22:17:38.530Z,101429.83
2022-11-29T22:22:41.640Z,101431.80
2022-11-29T22:27:44.651Z,101429.99
2022-11-29T22:32:47.761Z,101431.02
2022-11-29T22:37:50.965Z,101431.38
2022-11-29T22:42:53.873Z,101433.77
2022-11-29T22:47:58.210Z,101434.48
2022-11-29T22:53:01.316Z,101432.05
2022-11-29T22:58:04.424Z,101432.56
2022-11-29T23:03:07.430Z,101432.54
2022-11-29T23:08:10.642Z,101429.39
2022-11-29T23:13:13.763Z,101436.36
2022-11-29T23:18:16.756Z,101435.84
2022-11-29T23:23:19.780Z,101437.88
2022-11-29T23:28:24.444Z,101436.70
2022-11-29T23:33:28.485Z,101436.68
2022-11-29T23:38:32.164Z,101430.58
2022-11-29T23:43:37.199Z,101431.27
2022-11-29T23:48:40.636Z,101435.92
2022-11-29T23:53:43.944Z,101433.50
2022-11-29T23:58:47.053Z,101435.39
